Etusivu
METAR-TAF:

METAR-TAF

Lentoasemat :

Gillespie County Airport

Fredericksburg, Texas, Yhdysvallat

Leveyspiiri: 30-14-37N, Pituuspiiri: 098-54-34W, korkeus merenpinnasta: 517 m

Tämänhetkinen sää

Tämä raportti tehtiin 15 minuuttia sitten, kello 17.35 UTC
Tuuli 7 kn etelästä puuskistuen 14 kn:hen
Lämpötila 31°C
Kosteus 43%
Ilmanpaine 1019 hPa
Näkyvyys: 16.1 km
Hajanaisia pilviä 4500 ft:n korkeudessa

METAR: KT82 071735Z AUTO 17007G14KT 10SM SCT045 31/17 A3010 RMK AO2 T03110173

Aika: 12:50 (17:50 UTC)


TAF: puuttuu

Säähavainnot ja -ennusteet yli 4000 lentoasemalta (METAR- ja TAF-raportit).

Käytössä olevat sääasemat on merkitty karttaan keltaisilla ja punaisilla pisteillä.

Aseta hiiri pisteen päälle nähdäksesi sääaseman nimen.

Klikkaa sitten nähdäksesi säähavainnot ja -ennusteet.

Kartan vaihtaminen: klikkaa mustalla rastilla varustettuja vihreitä pisteitä, niin voit zoomata sisään; viivalla varustettua vihreää pistettä, niin voit zoomata ulos tai vihreitä nuolia, niin pääset viereisille kartoille.


METAR-TAF: